Sunday, May 29, 2016
09:42 UTC
  |  Log In   |  Register Free
Airport Search:

Coffeyville Municipal Airport
(KCFV)

Coffeyville Municipal Airport Diagram
No Airport Diagram Available

FAA data valid effective Mar 31 2016 - May 26 2016 (unless otherwise noted).

 
 
 
 
 
 
 
 
 
 
 
 
 
 
Current Aviation Weather for KCFV

Weather Summary


The most recent METAR observation for CFV was updated at: 12:52 UTC
METAR for KCFV is not available. Closest METAR is for KIDP
KCFV  (most recent observation was updatred at 29:08 UTC)
290852Z AUTO 00000KT 8SM CLR 17/17 A3005 RMK AO2 SLP169 T01720167 53002

KIDP  (10.6 nm SE)   (most recent observation was updated at 29:09 UTC)
290915Z AUTO 00000KT 7SM CLR 17/16 A3006 RMK AO2

KBVO  (28.9 nm NE)   (most recent observation was updated at 29:08 UTC)
290853Z AUTO 00000KT 6SM BR CLR 16/15 A3006 RMK AO2 SLP168 T01560150 53005 TSNO

TAF for KCFV is not available.
KBVO  (28.9 nm NE)   (most recent observation was updatred at 29:05 UTC)
290520Z 2906/3006 00000KT P6SM SKC FM291400 18005KT P6SM SCT040 BKN250 PROB30 2917/2923 5SM -TSRA BKN040CB FM300100 00000KT P6SM BKN250


KCNU  (34.8 nm SW)   (most recent observation was updatred at 29:09 UTC)
AMD 290941Z 2910/3006 VRB03KT 4SM BR SKC TEMPO 2910/2913 1/2SM FG FM291500 25005KT P6SM SCT250 FM291800 19007KT P6SM BKN250


GlobalAir.com is loading additional information.
 Current Weather at CFV
65.0 F° (18.3 C°)

South winds at 3.5 mph
Pressure:
30.05 in
Humidity:
93%
Wind:
South at 3.5 mph
Dew Point:
63.0 F° (17.2 C°)
Visibility:
10.00 mi
CFV NOAA Radar




Find All Airport Services Find A Hotel Find A Rental Car Find A Golf Course Find A Restaurant $100 Hamburger



Airport Weather Forecast for KCFV

Translated METAR for KCFV (0852 UTC)
METAR:
KCFV 290852Z AUTO 00000KT 8SM CLR 17/17 A3005 RMK AO2 SLP169 T01720167 53002
Conditions at:
KCFV (Coffeyville Muni, KS) observed 0852 UTC 29 May 2016
Temperature:
17°C (62.6°F)
Dewpoint:
17°C (62.6°F) [RH = 100]
Pressure:
30.05 inches Hg (1017.6 mb)
pressure at sea level is 169 in Hg
Winds:
from the N (000 degrees) at 0 mph (0 knots: 0 m/s)
Visibility:
8 mile(s)
Ceiling:
at least 12,000 feet AGL
Clouds:
Clear below 12,000 feet AGL
Remarks:
site is un-manned
site is automated and HAS a precipitation sensor

Translated TAF for KBVO (Bartlesville Muni, OK) (0520 UTC)
TAF text:
KBVO 290520Z 2906/3006 00000KT P6SM SKC
Forecast period:
Sunday May 29 2016 06:00 UTC - Monday May 30 2016 06:00 UTC
Forecast type:
FROM: standard forecast or significant change
Winds:
from the N (000 degrees) at 0 mph (0 knots: 0 m/s)
Visibility:
6 or more mile(s) (9.7+ km)
Ceiling:
at least 12,000 feet AGL
Clouds:
Clear Skies
Weather:
no significant weather observed at this time
TAF text:
FM291400 18005KT P6SM SCT040 BKN250 PROB30 2917/2923 5SM -TSRA BKN040CB
Forecast period:
Sunday May 29 2016 14:00 UTC - Monday May 30 2016 01:00 UTC
Forecast type:
FROM: standard forecast or significant change
Winds:
from the S (180 degrees) at 5.8 mph (5 knots: 2.6 m/s)
Visibility:
6 or more mile(s) (9.7+ km)5 mile(s) (8 km)
Ceiling:
25,000 feet AGL
Clouds:
Scattered Clouds at 4,000 feet AGL
Broken Cloud Cover at 25,000 feet AGL
Weather:
Moderate Partial
TAF text:
FM300100 00000KT P6SM BKN250
Forecast period:
Monday May 30 2016 01:00 UTC - Monday May 30 2016 06:00 UTC
Forecast type:
FROM: standard forecast or significant change
Winds:
from the N (000 degrees) at 0 mph (0 knots: 0 m/s)
Visibility:
6 or more mile(s) (9.7+ km)
Ceiling:
25,000 feet AGL
Clouds:
Broken Cloud Cover at 25,000 feet AGL
Weather:
no significant weather observed at this time
FBO's on the Field
FBO Company Facility Photos Services Transportation Aviation Fuel Prices: Prices include tax
Catering Weather Repair Courtesy Rental Type 100LL JetA JetA+ MOGAS 8087
 
Coffeyville Aircraft, Inc

This FBO has not yet been rated
FS:Phillips 66
Last Updated: May-04
Login to update fuel prices
SS:
Contact Coffeyville Aircraft, IncMore FBO Information
 
Add another FBO Facility Photos Catering Weather Repair Courtesy Rental Type 100LL JetA JetA+ MOGAS 8087
Services Transportation Aviation Fuel Prices: Prices include tax


model-print
model-print
model-print
model-print